sensor_id;sensor_type;location;lat;lon;timestamp;pressure;altitude;pressure_sealevel;temperature;humidity
35704;BME280;21820;51.112;13.762;2023-04-05T21:06:16;99909.91;;;25.32;46.30
35704;BME280;21820;51.112;13.762;2023-04-05T21:08:41;99906.38;;;25.24;46.58
35704;BME280;21820;51.112;13.762;2023-04-05T21:11:07;99905.97;;;25.11;46.95
35704;BME280;21820;51.112;13.762;2023-04-05T21:13:35;99904.28;;;25.02;46.91
35704;BME280;21820;51.112;13.762;2023-04-05T21:16:01;99888.69;;;24.83;47.24
35704;BME280;21820;51.112;13.762;2023-04-05T21:18:26;99911.03;;;24.79;47.66
35704;BME280;21820;51.112;13.762;2023-04-05T21:20:52;99888.47;;;24.59;47.60
35704;BME280;21820;51.112;13.762;2023-04-05T21:23:19;99906.81;;;24.51;48.17
35704;BME280;21820;51.112;13.762;2023-04-05T21:25:45;99900.50;;;24.43;48.53
35704;BME280;21820;51.112;13.762;2023-04-05T21:28:11;99897.63;;;24.37;48.65
35704;BME280;21820;51.112;13.762;2023-04-05T21:30:37;99903.34;;;24.32;49.03
35704;BME280;21820;51.112;13.762;2023-04-05T21:33:03;99895.66;;;24.21;49.26
35704;BME280;21820;51.112;13.762;2023-04-05T21:35:28;99897.69;;;24.10;49.63
35704;BME280;21820;51.112;13.762;2023-04-05T21:37:54;99891.66;;;24.00;49.80
35704;BME280;21820;51.112;13.762;2023-04-05T21:40:19;99896.00;;;23.91;50.04
35704;BME280;21820;51.112;13.762;2023-04-05T21:42:45;99893.94;;;23.85;50.45
35704;BME280;21820;51.112;13.762;2023-04-05T21:45:11;99893.16;;;23.75;50.67
35704;BME280;21820;51.112;13.762;2023-04-05T21:47:36;99887.66;;;23.69;50.70
35704;BME280;21820;51.112;13.762;2023-04-05T21:50:02;99894.34;;;23.63;51.09
35704;BME280;21820;51.112;13.762;2023-04-05T21:52:28;99872.88;;;23.50;51.63
35704;BME280;21820;51.112;13.762;2023-04-05T21:54:53;99892.19;;;23.49;51.34
35704;BME280;21820;51.112;13.762;2023-04-05T21:57:19;99886.84;;;23.41;51.74
35704;BME280;21820;51.112;13.762;2023-04-05T21:59:44;99872.09;;;23.31;51.57
35704;BME280;21820;51.112;13.762;2023-04-05T22:02:10;99879.69;;;23.24;52.55
35704;BME280;21820;51.112;13.762;2023-04-05T22:04:36;99882.88;;;23.18;52.71
35704;BME280;21820;51.112;13.762;2023-04-05T22:07:03;99886.50;;;23.17;52.13
35704;BME280;21820;51.112;13.762;2023-04-05T22:09:28;99880.16;;;23.10;52.53
35704;BME280;21820;51.112;13.762;2023-04-05T22:11:53;99879.91;;;23.03;52.58
35704;BME280;21820;51.112;13.762;2023-04-05T22:14:19;99873.69;;;22.95;52.52
35704;BME280;21820;51.112;13.762;2023-04-05T22:16:44;99880.19;;;22.91;53.21
35704;BME280;21820;51.112;13.762;2023-04-05T22:19:10;99873.88;;;22.84;53.17
35704;BME280;21820;51.112;13.762;2023-04-05T22:21:36;99882.97;;;22.80;53.24
35704;BME280;21820;51.112;13.762;2023-04-05T22:24:02;99882.84;;;22.72;53.92
35704;BME280;21820;51.112;13.762;2023-04-05T22:26:27;99877.75;;;22.70;53.84
35704;BME280;21820;51.112;13.762;2023-04-05T22:28:53;99883.00;;;22.61;53.83
35704;BME280;21820;51.112;13.762;2023-04-05T22:31:18;99871.41;;;22.54;54.24
35704;BME280;21820;51.112;13.762;2023-04-05T22:33:44;99874.97;;;22.53;54.30
35704;BME280;21820;51.112;13.762;2023-04-05T22:36:09;99884.34;;;22.46;54.64
35704;BME280;21820;51.112;13.762;2023-04-05T22:38:35;99873.47;;;22.41;54.86
35704;BME280;21820;51.112;13.762;2023-04-05T22:41:00;99877.44;;;22.35;54.47
35704;BME280;21820;51.112;13.762;2023-04-05T22:43:25;99875.81;;;22.34;54.41
35704;BME280;21820;51.112;13.762;2023-04-05T22:45:52;99876.47;;;22.27;54.63
35704;BME280;21820;51.112;13.762;2023-04-05T22:48:18;99879.38;;;22.24;54.84
35704;BME280;21820;51.112;13.762;2023-04-05T22:50:43;99877.97;;;22.20;54.84
35704;BME280;21820;51.112;13.762;2023-04-05T22:53:09;99868.75;;;22.16;54.74
35704;BME280;21820;51.112;13.762;2023-04-05T22:55:34;99860.63;;;22.00;55.42
35704;BME280;21820;51.112;13.762;2023-04-05T22:58:02;99874.66;;;22.08;55.73
35704;BME280;21820;51.112;13.762;2023-04-05T23:00:27;99878.13;;;22.09;55.63
35704;BME280;21820;51.112;13.762;2023-04-05T23:02:52;99863.25;;;22.00;55.11
35704;BME280;21820;51.112;13.762;2023-04-05T23:05:18;99871.50;;;22.05;55.41
35704;BME280;21820;51.112;13.762;2023-04-05T23:07:43;99870.81;;;22.03;55.34
35704;BME280;21820;51.112;13.762;2023-04-05T23:10:09;99872.31;;;21.95;55.43
35704;BME280;21820;51.112;13.762;2023-04-05T23:12:34;99879.88;;;21.98;56.10
35704;BME280;21820;51.112;13.762;2023-04-05T23:15:00;99868.84;;;21.95;55.88
35704;BME280;21820;51.112;13.762;2023-04-05T23:17:25;99868.84;;;21.85;55.95
35704;BME280;21820;51.112;13.762;2023-04-05T23:19:51;99872.59;;;21.92;56.04
35704;BME280;21820;51.112;13.762;2023-04-05T23:22:16;99873.53;;;21.91;55.55
35704;BME280;21820;51.112;13.762;2023-04-05T23:24:41;99868.28;;;21.91;55.94
35704;BME280;21820;51.112;13.762;2023-04-05T23:27:07;99873.53;;;21.91;56.37
35704;BME280;21820;51.112;13.762;2023-04-05T23:29:32;99862.53;;;21.88;56.17
35704;BME280;21820;51.112;13.762;2023-04-05T23:31:57;99869.41;;;21.89;56.27
35704;BME280;21820;51.112;13.762;2023-04-05T23:34:23;99876.16;;;21.91;55.79
35704;BME280;21820;51.112;13.762;2023-04-05T23:36:48;99871.19;;;21.88;56.07
35704;BME280;21820;51.112;13.762;2023-04-05T23:39:13;99873.00;;;21.88;55.99
35704;BME280;21820;51.112;13.762;2023-04-05T23:41:39;99869.81;;;21.84;56.37
35704;BME280;21820;51.112;13.762;2023-04-05T23:44:05;99879.59;;;21.82;56.13
35704;BME280;21820;51.112;13.762;2023-04-05T23:46:32;99868.28;;;21.82;56.70
35704;BME280;21820;51.112;13.762;2023-04-05T23:48:57;99871.03;;;21.80;55.98
35704;BME280;21820;51.112;13.762;2023-04-05T23:51:22;99864.16;;;21.79;56.16
35704;BME280;21820;51.112;13.762;2023-04-05T23:53:48;99858.91;;;21.79;56.27
35704;BME280;21820;51.112;13.762;2023-04-05T23:56:13;99869.41;;;21.79;55.92
35704;BME280;21820;51.112;13.762;2023-04-05T23:58:39;99858.91;;;21.79;56.13
